createdAt,value
2019-05-01T00:02:15.128Z,21.00
2019-05-01T00:04:51.157Z,18.43
2019-05-01T00:07:21.064Z,19.00
2019-05-01T00:09:49.319Z,21.00
2019-05-01T00:12:17.726Z,21.87
2019-05-01T00:14:45.962Z,19.40
2019-05-01T00:17:14.237Z,16.67
2019-05-01T00:19:42.501Z,19.77
2019-05-01T00:22:10.773Z,15.27
2019-05-01T00:24:39.023Z,20.17
2019-05-01T00:27:07.288Z,18.53
2019-05-01T00:29:35.539Z,17.43
2019-05-01T00:32:03.817Z,18.77
2019-05-01T00:34:32.069Z,18.40
2019-05-01T00:37:00.353Z,15.03
2019-05-01T00:39:28.771Z,18.90
2019-05-01T00:41:57.047Z,18.73
2019-05-01T00:44:25.364Z,18.60
2019-05-01T00:46:53.618Z,15.83
2019-05-01T00:49:21.885Z,15.43
2019-05-01T00:51:50.130Z,17.27
2019-05-01T00:54:18.399Z,17.50
2019-05-01T00:56:54.013Z,16.47
2019-05-01T00:59:26.810Z,20.40
2019-05-01T01:02:14.341Z,16.13
2019-05-01T01:04:42.600Z,15.93
2019-05-01T01:07:10.879Z,14.40
2019-05-01T01:09:39.126Z,16.60
2019-05-01T01:12:07.375Z,18.47
2019-05-01T01:14:35.651Z,17.57
2019-05-01T01:17:03.904Z,17.00
2019-05-01T01:19:32.182Z,20.13
2019-05-01T01:22:00.436Z,18.60
2019-05-01T01:24:28.709Z,17.60
2019-05-01T01:26:56.963Z,17.23
2019-05-01T01:29:25.232Z,18.47
2019-05-01T01:31:53.487Z,23.00
2019-05-01T01:34:21.771Z,14.73
2019-05-01T01:36:50.020Z,20.03
2019-05-01T01:39:18.287Z,17.33
2019-05-01T01:41:46.916Z,15.40
2019-05-01T01:44:16.833Z,15.80
2019-05-01T01:46:46.722Z,21.00
2019-05-01T01:49:15.164Z,20.57
2019-05-01T01:51:43.417Z,17.80
2019-05-01T01:54:11.699Z,17.57
2019-05-01T01:56:39.953Z,29.80
2019-05-01T01:59:08.223Z,26.60
2019-05-01T02:01:54.044Z,22.33
2019-05-01T02:07:03.154Z,20.47
2019-05-01T02:09:31.427Z,20.47
2019-05-01T02:11:59.673Z,18.80
2019-05-01T02:14:27.953Z,22.03
2019-05-01T02:16:56.211Z,19.00
2019-05-01T02:19:24.504Z,19.10
2019-05-01T02:21:52.731Z,15.30
2019-05-01T02:24:21.018Z,23.13
2019-05-01T02:26:53.829Z,25.13
2019-05-01T02:29:24.228Z,20.97
2019-05-01T02:31:53.127Z,22.17
2019-05-01T02:34:21.402Z,24.57
2019-05-01T02:36:51.087Z,18.13
2019-05-01T02:41:47.358Z,20.30
2019-05-01T02:44:18.901Z,20.50
2019-05-01T02:46:48.003Z,23.70
2019-05-01T02:49:43.453Z,24.82
2019-05-01T02:52:12.042Z,18.90
2019-05-01T02:54:41.754Z,14.83
2019-05-01T02:57:14.628Z,21.73
2019-05-01T02:59:45.758Z,18.73
2019-05-01T03:02:14.015Z,18.73
2019-05-01T03:04:42.257Z,18.00
2019-05-01T03:07:10.529Z,19.23
2019-05-01T03:09:38.846Z,23.10
2019-05-01T03:12:07.118Z,21.63
2019-05-01T03:14:38.370Z,19.13
2019-05-01T03:17:08.297Z,18.60
2019-05-01T03:19:56.275Z,23.80
2019-05-01T03:22:28.903Z,22.07
2019-05-01T03:24:57.151Z,20.27
2019-05-01T03:27:25.420Z,20.73
2019-05-01T03:29:53.671Z,23.00
2019-05-01T03:32:21.949Z,20.70
2019-05-01T03:34:52.664Z,19.63
2019-05-01T03:37:20.219Z,21.13
2019-05-01T03:39:48.476Z,19.60
2019-05-01T03:42:16.740Z,19.83
2019-05-01T03:44:44.984Z,21.10
2019-05-01T03:47:13.266Z,21.03
2019-05-01T03:49:41.583Z,22.20
2019-05-01T03:52:09.859Z,24.70
2019-05-01T03:54:38.113Z,20.57
2019-05-01T03:57:06.392Z,22.03
2019-05-01T03:59:34.643Z,20.40
2019-05-01T04:02:32.232Z,21.97
2019-05-01T04:04:46.531Z,20.20
2019-05-01T04:07:14.801Z,21.17
2019-05-01T04:09:43.048Z,20.27
2019-05-01T04:12:11.350Z,19.33
2019-05-01T04:14:39.714Z,23.20
2019-05-01T04:17:09.611Z,18.70
2019-05-01T04:19:37.850Z,22.43
2019-05-01T04:22:13.097Z,25.47
2019-05-01T04:24:41.335Z,22.87
2019-05-01T04:27:11.247Z,20.57
2019-05-01T04:32:52.865Z,20.07
2019-05-01T04:35:16.916Z,16.80
2019-05-01T04:37:45.350Z,20.90
2019-05-01T04:40:13.622Z,22.80
2019-05-01T04:42:41.901Z,22.00
2019-05-01T04:45:10.221Z,20.87
2019-05-01T04:47:38.515Z,22.97
2019-05-01T04:50:06.841Z,20.90
2019-05-01T04:52:35.114Z,25.40
2019-05-01T04:55:04.402Z,19.63
2019-05-01T04:57:32.681Z,20.92
2019-05-01T05:00:00.929Z,25.27
2019-05-01T05:02:30.841Z,24.37
2019-05-01T05:04:59.086Z,21.50
2019-05-01T05:07:27.364Z,24.77
2019-05-01T05:09:55.613Z,27.83
2019-05-01T05:12:40.563Z,27.85
2019-05-01T05:15:10.453Z,22.50
2019-05-01T05:17:38.717Z,17.60
2019-05-01T05:20:07.239Z,21.07
2019-05-01T05:22:35.516Z,19.43
2019-05-01T05:25:04.809Z,18.77
2019-05-01T05:27:33.088Z,17.07
2019-05-01T05:30:01.335Z,18.53
2019-05-01T05:32:29.590Z,18.97
2019-05-01T05:34:57.941Z,16.30
2019-05-01T05:37:43.246Z,20.43
2019-05-01T05:40:11.502Z,17.23
2019-05-01T05:42:39.774Z,25.43
2019-05-01T05:45:08.033Z,18.80
2019-05-01T05:47:36.303Z,17.67
2019-05-01T05:50:06.481Z,19.47
2019-05-01T05:52:42.006Z,19.37
2019-05-01T05:55:14.953Z,21.30
2019-05-01T05:57:58.341Z,16.63
2019-05-01T06:00:44.314Z,19.17
2019-05-01T06:03:31.366Z,20.83
2019-05-01T06:06:09.199Z,19.73
2019-05-01T06:08:37.547Z,18.20
2019-05-01T06:11:07.451Z,16.90
2019-05-01T06:13:57.179Z,18.20
2019-05-01T06:16:46.788Z,17.83
2019-05-01T06:19:30.531Z,16.40
2019-05-01T06:22:18.445Z,15.93
2019-05-01T06:24:48.731Z,20.00
2019-05-01T06:27:17.055Z,19.27
2019-05-01T06:29:45.320Z,20.10
2019-05-01T06:32:13.574Z,17.10
2019-05-01T06:34:41.848Z,18.77
2019-05-01T06:37:10.144Z,15.40
2019-05-01T06:39:38.598Z,16.33
2019-05-01T06:42:09.866Z,17.07
2019-05-01T06:44:46.097Z,16.00
2019-05-01T06:47:19.055Z,17.77
2019-05-01T06:50:07.387Z,15.93
2019-05-01T06:52:35.901Z,18.85
2019-05-01T06:55:04.252Z,16.60
2019-05-01T06:57:32.494Z,16.27
2019-05-01T07:00:03.212Z,16.70
2019-05-01T07:02:34.917Z,16.73
2019-05-01T07:05:00.740Z,17.43
2019-05-01T07:07:28.999Z,14.77
2019-05-01T07:09:57.284Z,15.77
2019-05-01T07:12:28.253Z,17.53
2019-05-01T07:14:55.617Z,16.37
2019-05-01T07:17:23.859Z,19.10
2019-05-01T07:19:53.791Z,17.57
2019-05-01T07:22:22.117Z,16.40
2019-05-01T07:24:50.369Z,19.03
2019-05-01T07:27:23.164Z,14.97
2019-05-01T07:29:50.277Z,15.17
2019-05-01T07:32:18.733Z,17.83
2019-05-01T07:34:48.928Z,14.70
2019-05-01T07:37:20.850Z,19.83
2019-05-01T07:39:50.046Z,17.43
2019-05-01T07:42:30.498Z,17.07
2019-05-01T07:45:03.836Z,15.37
2019-05-01T07:47:38.359Z,14.67
2019-05-01T07:50:10.830Z,16.67
2019-05-01T07:52:39.388Z,15.83
2019-05-01T07:55:07.709Z,35.40
2019-05-01T07:57:39.350Z,14.17
2019-05-01T08:00:09.311Z,15.20
2019-05-01T08:02:37.598Z,16.60
2019-05-01T08:05:10.042Z,15.30
2019-05-01T08:07:36.530Z,14.47
2019-05-01T08:10:06.864Z,16.13
2019-05-01T08:12:35.139Z,16.57
2019-05-01T08:15:03.394Z,16.77
2019-05-01T08:17:33.319Z,19.82
2019-05-01T08:20:03.214Z,20.77
2019-05-01T08:22:37.153Z,18.00
2019-05-01T08:25:03.103Z,20.37
2019-05-01T08:27:39.307Z,24.40
2019-05-01T08:30:12.760Z,23.77
2019-05-01T08:32:52.636Z,17.50
2019-05-01T08:35:22.524Z,19.07
2019-05-01T08:37:53.910Z,14.83
2019-05-01T08:40:21.687Z,19.30
2019-05-01T08:42:50.135Z,16.63
2019-05-01T08:45:20.031Z,15.20
2019-05-01T08:47:56.671Z,17.73
2019-05-01T08:50:24.820Z,14.67
2019-05-01T08:52:52.862Z,17.53
2019-05-01T08:55:21.117Z,17.17
2019-05-01T08:57:49.463Z,15.33
2019-05-01T09:00:17.718Z,15.20
2019-05-01T09:02:46.001Z,16.07
2019-05-01T09:05:28.370Z,16.27
2019-05-01T09:07:44.348Z,16.40
2019-05-01T09:10:12.689Z,16.80
2019-05-01T09:12:42.614Z,18.07
2019-05-01T09:15:12.791Z,17.07
2019-05-01T09:17:40.945Z,17.23
2019-05-01T09:20:09.260Z,21.77
2019-05-01T09:22:37.623Z,16.77
2019-05-01T09:25:06.953Z,16.20
2019-05-01T09:27:36.868Z,14.93
2019-05-01T09:30:26.901Z,15.10
2019-05-01T09:32:55.567Z,14.03
2019-05-01T09:35:23.840Z,13.65
2019-05-01T09:37:52.124Z,13.47
2019-05-01T09:40:20.382Z,11.40
2019-05-01T09:42:48.663Z,10.60
2019-05-01T09:45:17.084Z,12.37
2019-05-01T09:47:45.428Z,10.97
2019-05-01T09:50:13.683Z,21.02
2019-05-01T09:53:00.846Z,12.23
2019-05-01T09:55:45.970Z,10.28
2019-05-01T09:58:14.254Z,11.88
2019-05-01T10:00:42.506Z,11.68
2019-05-01T10:03:13.168Z,17.03
2019-05-01T10:05:43.009Z,12.47
2019-05-01T10:08:10.782Z,13.28
2019-05-01T10:10:39.040Z,10.18
2019-05-01T10:13:07.326Z,11.07
2019-05-01T10:15:35.581Z,11.20
2019-05-01T10:18:03.925Z,9.75
2019-05-01T10:20:32.186Z,11.93
2019-05-01T10:23:00.472Z,10.50
2019-05-01T10:25:28.728Z,12.00
2019-05-01T10:28:01.223Z,8.73
2019-05-01T10:30:47.262Z,10.75
2019-05-01T10:33:22.782Z,12.30
2019-05-01T10:35:55.406Z,10.38
2019-05-01T10:38:23.696Z,9.08
2019-05-01T10:40:51.938Z,9.18
2019-05-01T10:43:20.214Z,9.87
2019-05-01T10:45:48.474Z,15.90
2019-05-01T10:48:16.761Z,11.45
2019-05-01T10:50:45.010Z,13.62
2019-05-01T10:53:13.286Z,13.17
2019-05-01T10:55:41.536Z,13.15
2019-05-01T10:58:12.672Z,12.65
2019-05-01T11:00:41.465Z,7.45
2019-05-01T11:03:09.776Z,9.05
2019-05-01T11:05:38.049Z,11.43
2019-05-01T11:08:06.308Z,10.15
2019-05-01T11:10:34.587Z,7.95
2019-05-01T11:13:02.984Z,12.13
2019-05-01T11:15:31.259Z,9.05
2019-05-01T11:17:59.532Z,7.80
2019-05-01T11:20:27.819Z,9.35
2019-05-01T11:22:56.074Z,7.97
2019-05-01T11:25:24.432Z,8.55
2019-05-01T11:27:52.683Z,6.75
2019-05-01T11:30:20.941Z,7.85
2019-05-01T11:32:56.597Z,11.73
2019-05-01T11:35:42.653Z,9.70
2019-05-01T11:38:12.539Z,12.63
2019-05-01T11:40:45.430Z,9.55
2019-05-01T11:43:13.697Z,6.70
2019-05-01T11:45:41.964Z,6.97
2019-05-01T11:48:10.219Z,10.17
2019-05-01T11:50:38.491Z,10.82
2019-05-01T11:53:07.658Z,24.02
2019-05-01T11:55:36.013Z,15.90
2019-05-01T11:58:04.266Z,7.17
2019-05-01T12:00:32.622Z,10.05
2019-05-01T12:03:00.875Z,15.38
2019-05-01T12:05:29.145Z,10.55
2019-05-01T12:07:57.411Z,10.80
2019-05-01T12:10:25.685Z,8.63
2019-05-01T12:12:54.002Z,7.08
2019-05-01T12:15:22.274Z,9.28
2019-05-01T12:17:51.305Z,7.03
2019-05-01T12:20:19.919Z,10.75
2019-05-01T12:22:51.219Z,8.77
2019-05-01T12:25:18.238Z,10.95
2019-05-01T12:27:46.558Z,7.40
2019-05-01T12:30:16.568Z,7.85
2019-05-01T12:32:44.819Z,8.03
2019-05-01T12:35:13.093Z,6.28
2019-05-01T12:37:42.115Z,6.30
2019-05-01T12:40:11.525Z,6.30
2019-05-01T12:42:39.772Z,7.28
2019-05-01T12:45:10.141Z,7.92
2019-05-01T12:47:42.431Z,8.20
2019-05-01T12:50:10.809Z,8.20
2019-05-01T12:52:46.541Z,5.78
2019-05-01T12:55:19.478Z,5.97
2019-05-01T12:57:47.724Z,5.97
2019-05-01T13:00:20.028Z,6.10
2019-05-01T13:02:48.298Z,10.00
2019-05-01T13:05:16.551Z,5.37
2019-05-01T13:07:44.823Z,7.57
2019-05-01T13:10:13.069Z,8.18
2019-05-01T13:12:41.343Z,7.67
2019-05-01T13:15:09.596Z,6.72
2019-05-01T13:17:37.871Z,13.83
2019-05-01T13:20:07.161Z,6.25
2019-05-01T13:22:35.431Z,8.53
2019-05-01T13:25:05.433Z,8.00
2019-05-01T13:27:35.356Z,9.63
2019-05-01T13:30:06.311Z,6.45
2019-05-01T13:32:38.639Z,4.90
2019-05-01T13:35:06.881Z,6.33
2019-05-01T13:37:35.149Z,7.80
2019-05-01T13:40:04.631Z,7.45
2019-05-01T13:45:00.537Z,4.75
2019-05-01T13:47:28.811Z,6.67
2019-05-01T13:49:57.062Z,7.25
2019-05-01T13:52:25.338Z,6.40
2019-05-01T13:54:53.591Z,6.87
2019-05-01T13:57:21.880Z,5.75
2019-05-01T13:59:50.120Z,7.28
2019-05-01T14:02:18.388Z,5.10
2019-05-01T14:04:46.638Z,7.37
2019-05-01T14:07:16.825Z,6.05
2019-05-01T14:09:45.125Z,5.95
2019-05-01T14:12:13.398Z,8.70
2019-05-01T14:14:41.647Z,7.55
2019-05-01T14:17:09.926Z,6.75
2019-05-01T14:19:39.822Z,6.05
2019-05-01T14:22:18.568Z,5.43
2019-05-01T14:24:54.416Z,6.72
2019-05-01T14:27:22.693Z,7.60
2019-05-01T14:29:50.954Z,6.00
2019-05-01T14:32:19.229Z,5.10
2019-05-01T14:34:47.486Z,4.72
2019-05-01T14:37:28.875Z,5.57
2019-05-01T14:39:45.745Z,8.03
2019-05-01T14:42:14.028Z,5.50
2019-05-01T14:44:42.354Z,6.70
2019-05-01T14:47:10.621Z,6.67
2019-05-01T14:49:38.893Z,8.18
2019-05-01T14:52:07.144Z,5.97
2019-05-01T14:54:35.413Z,5.67
2019-05-01T14:57:03.664Z,8.47
2019-05-01T14:59:32.116Z,7.85
2019-05-01T15:02:00.380Z,4.33
2019-05-01T15:04:28.672Z,4.28
2019-05-01T15:06:56.919Z,6.90
2019-05-01T15:09:25.207Z,5.60
2019-05-01T15:11:53.543Z,3.27
2019-05-01T15:14:25.887Z,4.65
2019-05-01T15:16:58.621Z,5.58
2019-05-01T15:19:28.533Z,6.42
2019-05-01T15:21:56.788Z,6.73
2019-05-01T15:24:25.063Z,5.92
2019-05-01T15:26:53.343Z,4.67
2019-05-01T15:29:21.615Z,8.23
2019-05-01T15:31:49.882Z,3.17
2019-05-01T15:34:18.132Z,5.67
2019-05-01T15:36:46.381Z,7.03
2019-05-01T15:39:16.299Z,5.60
2019-05-01T15:42:02.224Z,7.42
2019-05-01T15:44:32.202Z,6.75
2019-05-01T15:47:00.452Z,9.43
2019-05-01T15:49:28.727Z,5.70
2019-05-01T15:51:56.990Z,4.73
2019-05-01T15:54:25.292Z,4.37
2019-05-01T15:56:53.545Z,6.08
2019-05-01T15:59:21.816Z,4.05
2019-05-01T16:01:50.066Z,8.80
2019-05-01T16:04:18.348Z,5.70
2019-05-01T16:06:46.601Z,5.10
2019-05-01T16:09:14.944Z,4.57
2019-05-01T16:11:47.522Z,4.67
2019-05-01T16:14:15.798Z,4.80
2019-05-01T16:16:44.046Z,3.92
2019-05-01T16:19:12.337Z,4.20
2019-05-01T16:21:40.581Z,4.53
2019-05-01T16:24:08.853Z,5.43
2019-05-01T16:26:37.103Z,5.22
2019-05-01T16:29:05.394Z,13.50
2019-05-01T16:31:33.642Z,6.33
2019-05-01T16:34:01.892Z,4.90
2019-05-01T16:36:30.264Z,6.75
2019-05-01T16:39:02.629Z,6.90
2019-05-01T16:41:32.077Z,5.25
2019-05-01T16:44:00.322Z,6.42
2019-05-01T16:46:28.611Z,6.67
2019-05-01T16:48:56.862Z,4.30
2019-05-01T16:51:25.142Z,5.78
2019-05-01T16:53:53.401Z,10.63
2019-05-01T16:56:21.671Z,5.83
2019-05-01T16:58:49.934Z,4.47
2019-05-01T17:01:37.711Z,7.33
2019-05-01T17:04:07.613Z,8.67
2019-05-01T17:06:47.215Z,8.28
2019-05-01T17:09:25.805Z,5.67
2019-05-01T17:11:54.088Z,4.60
2019-05-01T17:14:22.710Z,6.17
2019-05-01T17:16:51.836Z,3.45
2019-05-01T17:19:20.086Z,4.55
2019-05-01T17:21:48.367Z,4.40
2019-05-01T17:24:16.618Z,5.47
2019-05-01T17:26:44.894Z,5.00
2019-05-01T17:29:13.151Z,5.40
2019-05-01T17:31:41.430Z,5.72
2019-05-01T17:34:09.888Z,4.10
2019-05-01T17:36:38.147Z,3.92
2019-05-01T17:39:06.410Z,4.77
2019-05-01T17:41:34.682Z,5.55
2019-05-01T17:44:02.940Z,6.67
2019-05-01T17:46:31.221Z,4.12
2019-05-01T17:48:59.468Z,6.03
2019-05-01T17:51:27.760Z,6.03
2019-05-01T17:53:56.017Z,5.37
2019-05-01T17:56:28.316Z,6.78
2019-05-01T17:58:54.785Z,5.58
2019-05-01T18:01:27.642Z,7.17
2019-05-01T18:03:57.076Z,7.70
2019-05-01T18:06:29.879Z,8.48
2019-05-01T18:09:03.156Z,8.13
2019-05-01T18:11:28.134Z,7.62
2019-05-01T18:13:56.383Z,8.53
2019-05-01T18:16:24.777Z,7.42
2019-05-01T18:18:53.039Z,9.73
2019-05-01T18:21:21.491Z,9.38
2019-05-01T18:24:07.305Z,8.93
2019-05-01T18:26:44.915Z,7.10
2019-05-01T18:29:14.877Z,6.68
2019-05-01T18:31:43.230Z,6.22
2019-05-01T18:34:11.521Z,8.37
2019-05-01T18:36:46.951Z,9.05
2019-05-01T18:39:27.128Z,12.55
2019-05-01T18:42:02.614Z,10.63
2019-05-01T18:44:30.862Z,8.35
2019-05-01T18:46:59.204Z,11.10
2019-05-01T18:49:27.456Z,9.55
2019-05-01T18:51:55.710Z,10.58
2019-05-01T18:54:23.995Z,9.83
2019-05-01T18:56:54.556Z,11.80
2019-05-01T18:59:22.246Z,10.03
2019-05-01T19:01:50.669Z,9.83
2019-05-01T19:04:23.558Z,9.63
2019-05-01T19:06:48.916Z,10.03
2019-05-01T19:09:29.323Z,11.27
2019-05-01T19:11:47.184Z,8.20
2019-05-01T19:14:15.462Z,10.60
2019-05-01T19:16:45.159Z,14.97
2019-05-01T19:19:13.900Z,11.87
2019-05-01T19:21:46.526Z,11.93
2019-05-01T19:24:12.690Z,12.03
2019-05-01T19:26:42.630Z,15.00
2019-05-01T19:29:11.163Z,14.03
2019-05-01T19:31:39.370Z,14.43
2019-05-01T19:34:07.648Z,11.30
2019-05-01T19:36:35.917Z,10.13
2019-05-01T19:39:06.940Z,11.70
2019-05-01T19:41:35.882Z,12.77
2019-05-01T19:44:04.200Z,14.73
2019-05-01T19:46:32.462Z,18.97
2019-05-01T19:49:00.746Z,15.63
2019-05-01T19:51:29.062Z,23.50
2019-05-01T19:53:57.415Z,16.90
2019-05-01T19:56:25.679Z,20.27
2019-05-01T19:58:54.060Z,18.00
2019-05-01T20:01:22.394Z,19.47
2019-05-01T20:03:50.687Z,15.63
2019-05-01T20:06:18.938Z,16.27
2019-05-01T20:08:47.238Z,15.27
2019-05-01T20:11:15.494Z,13.63
2019-05-01T20:13:43.786Z,14.00
2019-05-01T20:16:12.832Z,11.10
2019-05-01T20:18:41.122Z,13.28
2019-05-01T20:21:09.372Z,13.60
2019-05-01T20:23:37.715Z,12.70
2019-05-01T20:26:08.945Z,9.63
2019-05-01T20:28:37.488Z,11.97
2019-05-01T20:31:05.958Z,13.70
2019-05-01T20:33:39.162Z,11.03
2019-05-01T20:36:05.358Z,10.80
2019-05-01T20:38:34.191Z,14.30
2019-05-01T20:41:02.467Z,11.77
2019-05-01T20:43:33.419Z,11.10
2019-05-01T20:46:00.783Z,10.00
2019-05-01T20:48:29.037Z,10.60
2019-05-01T20:50:57.334Z,12.17
2019-05-01T20:53:25.593Z,9.40
2019-05-01T20:55:58.239Z,10.17
2019-05-01T20:58:26.553Z,8.70
2019-05-01T21:00:56.474Z,13.57
2019-05-01T21:03:24.739Z,10.60
2019-05-01T21:06:13.019Z,12.97
2019-05-01T21:08:57.930Z,11.53
2019-05-01T21:11:36.752Z,21.03
2019-05-01T21:14:19.766Z,30.72
2019-05-01T21:16:37.903Z,25.33
2019-05-01T21:19:05.162Z,27.07
2019-05-01T21:21:34.382Z,17.73
2019-05-01T21:24:03.669Z,20.55
2019-05-01T21:26:33.582Z,17.12
2019-05-01T21:29:03.944Z,14.25
2019-05-01T21:31:33.982Z,16.93
2019-05-01T21:34:04.029Z,21.60
2019-05-01T21:36:31.922Z,15.80
2019-05-01T21:39:00.170Z,18.33
2019-05-01T21:41:28.450Z,14.67
2019-05-01T21:43:56.705Z,15.70
2019-05-01T21:46:24.997Z,18.77
2019-05-01T21:48:53.617Z,18.70
2019-05-01T21:51:22.762Z,14.57
2019-05-01T21:53:52.820Z,17.93
2019-05-01T21:56:21.012Z,16.07
2019-05-01T21:58:49.262Z,12.20
2019-05-01T22:01:17.617Z,13.00
2019-05-01T22:03:45.873Z,11.63
2019-05-01T22:06:15.411Z,17.30
2019-05-01T22:08:44.126Z,9.60
2019-05-01T22:11:12.399Z,10.70
2019-05-01T22:13:40.651Z,9.77
2019-05-01T22:16:18.442Z,9.43
2019-05-01T22:18:50.816Z,10.17
2019-05-01T22:21:26.954Z,10.40
2019-05-01T22:23:56.866Z,10.03
2019-05-01T22:26:26.403Z,8.73
2019-05-01T22:28:56.290Z,11.70
2019-05-01T22:31:41.901Z,10.90
2019-05-01T22:34:11.788Z,8.10
2019-05-01T22:36:40.059Z,14.73
2019-05-01T22:39:08.384Z,14.07
2019-05-01T22:41:36.681Z,14.60
2019-05-01T22:44:05.008Z,12.63
2019-05-01T22:46:33.897Z,12.00
2019-05-01T22:49:03.272Z,11.20
2019-05-01T22:51:31.545Z,10.87
2019-05-01T22:53:59.810Z,11.60
2019-05-01T22:56:28.162Z,10.80
2019-05-01T22:58:56.415Z,11.27
2019-05-01T23:01:25.538Z,11.73
2019-05-01T23:03:55.460Z,13.85
2019-05-01T23:06:23.706Z,9.50
2019-05-01T23:08:52.008Z,11.73
2019-05-01T23:11:20.825Z,7.50
2019-05-01T23:13:49.101Z,9.10
2019-05-01T23:16:19.123Z,8.90
2019-05-01T23:18:51.960Z,11.37
2019-05-01T23:21:17.380Z,8.80
2019-05-01T23:23:45.648Z,9.75
2019-05-01T23:26:16.846Z,8.43
2019-05-01T23:28:43.898Z,8.23
2019-05-01T23:31:12.222Z,8.63
2019-05-01T23:33:40.502Z,12.30
2019-05-01T23:36:22.674Z,8.50
2019-05-01T23:38:39.698Z,8.93
2019-05-01T23:41:07.945Z,9.27
2019-05-01T23:43:36.238Z,8.97
2019-05-01T23:46:04.654Z,8.67
2019-05-01T23:48:32.923Z,8.90
2019-05-01T23:51:01.169Z,8.00
2019-05-01T23:53:29.446Z,10.00
2019-05-01T23:56:00.073Z,8.77
2019-05-01T23:58:27.687Z,10.43
